createdAt,value
2022-09-20T00:01:36.783Z,2.60
2022-09-20T00:04:07.068Z,2.95
2022-09-20T00:06:35.724Z,3.40
2022-09-20T00:09:05.620Z,2.08
2022-09-20T00:11:35.384Z,3.60
2022-09-20T00:16:39.810Z,2.10
2022-09-20T00:19:08.872Z,3.47
2022-09-20T00:21:37.990Z,5.88
2022-09-20T00:24:06.143Z,2.73
2022-09-20T00:26:34.474Z,2.67
2022-09-20T00:29:02.195Z,4.97
2022-09-20T00:31:30.047Z,3.78
2022-09-20T00:34:17.772Z,1.98
2022-09-20T00:36:46.046Z,1.58
2022-09-20T00:39:16.188Z,3.28
2022-09-20T00:45:04.083Z,2.90
2022-09-20T00:47:43.727Z,5.35
2022-09-20T00:50:37.102Z,3.25
2022-09-20T00:53:14.398Z,2.95
2022-09-20T00:55:50.132Z,3.50
2022-09-20T00:58:20.490Z,6.38
2022-09-20T01:00:51.687Z,3.08
2022-09-20T01:03:23.081Z,4.60
2022-09-20T01:05:53.248Z,2.75
2022-09-20T01:08:24.669Z,2.38
2022-09-20T01:10:53.331Z,5.68
2022-09-20T01:13:20.946Z,5.80
2022-09-20T01:15:50.542Z,3.67
2022-09-20T01:18:21.080Z,5.10
2022-09-20T01:20:50.543Z,2.45
2022-09-20T01:23:54.806Z,2.70
2022-09-20T01:26:41.046Z,3.28
2022-09-20T01:29:28.278Z,3.92
2022-09-20T01:32:03.628Z,3.15
2022-09-20T01:34:44.725Z,1.52
2022-09-20T01:38:02.984Z,4.68
2022-09-20T01:41:22.621Z,2.00
2022-09-20T01:43:55.598Z,1.83
2022-09-20T01:46:35.120Z,1.90
2022-09-20T01:49:30.209Z,3.07
2022-09-20T01:52:19.363Z,2.25
2022-09-20T01:55:30.808Z,1.65
2022-09-20T01:58:35.102Z,2.00
2022-09-20T02:01:46.513Z,4.15
2022-09-20T02:04:56.971Z,1.88
2022-09-20T02:08:00.960Z,1.67
2022-09-20T02:11:03.126Z,1.73
2022-09-20T02:13:56.545Z,1.95
2022-09-20T02:16:50.633Z,2.38
2022-09-20T02:19:41.486Z,1.02
2022-09-20T02:22:42.058Z,3.70
2022-09-20T02:26:11.038Z,1.05
2022-09-20T02:29:13.765Z,0.70
2022-09-20T02:31:56.188Z,1.77
2022-09-20T02:35:05.566Z,1.40
2022-09-20T02:38:15.096Z,1.27
2022-09-20T02:41:22.145Z,0.75
2022-09-20T02:44:33.787Z,1.10
2022-09-20T02:47:21.026Z,0.90
2022-09-20T02:50:25.211Z,1.23
2022-09-20T02:53:17.278Z,2.42
2022-09-20T02:55:58.333Z,1.00
2022-09-20T02:58:53.677Z,1.20
2022-09-20T03:02:20.183Z,1.20
2022-09-20T03:05:28.015Z,1.55
2022-09-20T03:08:07.386Z,2.45
2022-09-20T03:11:32.613Z,0.90
2022-09-20T03:14:32.571Z,0.88
2022-09-20T03:20:21.974Z,0.85
2022-09-20T03:23:45.970Z,1.58
2022-09-20T03:26:20.361Z,0.40
2022-09-20T03:29:28.055Z,2.03
2022-09-20T03:32:09.937Z,0.60
2022-09-20T03:34:50.955Z,2.95
2022-09-20T03:37:55.417Z,1.05
2022-09-20T03:40:58.982Z,1.80
2022-09-20T03:43:56.746Z,1.42
2022-09-20T03:46:34.712Z,1.13
2022-09-20T03:49:38.701Z,1.83
2022-09-20T03:52:40.040Z,1.50
2022-09-20T03:55:16.310Z,0.73
2022-09-20T03:58:00.296Z,1.00
2022-09-20T04:00:56.820Z,1.48
2022-09-20T04:03:53.687Z,1.02
2022-09-20T04:07:21.289Z,2.67
2022-09-20T04:10:17.310Z,4.50
2022-09-20T04:13:21.969Z,2.88
2022-09-20T04:16:13.801Z,4.68
2022-09-20T04:19:12.813Z,3.45
2022-09-20T04:22:02.013Z,2.40
2022-09-20T04:24:35.720Z,2.30
2022-09-20T04:27:23.613Z,4.65
2022-09-20T04:30:02.106Z,5.72
2022-09-20T04:32:43.114Z,1.98
2022-09-20T04:35:41.276Z,2.80
2022-09-20T04:38:19.579Z,3.58
2022-09-20T04:41:09.071Z,1.17
2022-09-20T04:44:28.027Z,2.83
2022-09-20T04:47:58.273Z,3.20
2022-09-20T04:54:41.462Z,1.25
2022-09-20T04:57:50.434Z,5.05
2022-09-20T05:00:24.496Z,4.65
2022-09-20T05:03:29.710Z,4.95
2022-09-20T05:06:30.581Z,2.83
2022-09-20T05:09:39.393Z,1.10
2022-09-20T05:12:33.848Z,2.25
2022-09-20T05:15:42.314Z,2.40
2022-09-20T05:18:41.399Z,3.03
2022-09-20T05:21:40.547Z,1.25
2022-09-20T05:24:33.214Z,3.17
2022-09-20T05:27:31.055Z,0.63
2022-09-20T05:30:26.043Z,1.48
2022-09-20T05:33:20.480Z,1.20
2022-09-20T05:36:20.607Z,1.45
2022-09-20T05:38:58.065Z,2.15
2022-09-20T05:41:56.479Z,6.18
2022-09-20T05:44:43.789Z,3.80
2022-09-20T05:47:36.190Z,1.48
2022-09-20T05:50:49.444Z,2.53
2022-09-20T05:53:35.980Z,2.38
2022-09-20T05:56:59.307Z,1.85
2022-09-20T06:00:04.345Z,1.73
2022-09-20T06:03:24.276Z,3.92
2022-09-20T06:06:13.338Z,2.47
2022-09-20T06:09:05.800Z,6.95
2022-09-20T06:11:51.939Z,3.35
2022-09-20T06:15:02.615Z,1.67
2022-09-20T06:18:24.035Z,4.20
2022-09-20T06:21:48.555Z,3.28
2022-09-20T06:24:43.444Z,4.07
2022-09-20T06:27:26.404Z,7.13
2022-09-20T06:30:01.993Z,2.65
2022-09-20T06:32:30.140Z,2.65
2022-09-20T06:35:02.594Z,3.33
2022-09-20T06:38:06.160Z,8.77
2022-09-20T06:41:22.073Z,0.63
2022-09-20T06:43:50.930Z,1.70
2022-09-20T06:46:19.459Z,1.17
2022-09-20T06:48:48.072Z,3.45
2022-09-20T06:51:16.196Z,0.98
2022-09-20T06:53:43.790Z,5.05
2022-09-20T06:56:20.314Z,2.72
2022-09-20T06:58:48.927Z,2.13
2022-09-20T07:01:30.576Z,0.73
2022-09-20T07:04:09.796Z,2.60
2022-09-20T07:06:40.671Z,1.38
2022-09-20T07:09:14.628Z,1.02
2022-09-20T07:11:49.260Z,2.10
2022-09-20T07:14:26.544Z,1.38
2022-09-20T07:16:55.221Z,6.40
2022-09-20T07:19:27.211Z,4.97
2022-09-20T07:21:55.377Z,3.65
2022-09-20T07:24:32.924Z,2.83
2022-09-20T07:27:36.067Z,4.45
2022-09-20T07:30:29.449Z,2.13
2022-09-20T07:33:42.056Z,2.63
2022-09-20T07:36:27.229Z,3.00
2022-09-20T07:38:55.224Z,3.47
2022-09-20T07:41:23.220Z,2.42
2022-09-20T07:43:53.626Z,2.00
2022-09-20T07:46:23.483Z,1.63
2022-09-20T07:48:51.502Z,1.63
2022-09-20T07:51:19.503Z,0.57
2022-09-20T07:53:47.241Z,2.10
2022-09-20T07:56:18.225Z,2.40
2022-09-20T07:58:50.088Z,1.67
2022-09-20T08:01:22.255Z,1.20
2022-09-20T08:03:50.084Z,1.83
2022-09-20T08:06:18.751Z,0.52
2022-09-20T08:08:46.923Z,2.92
2022-09-20T08:11:19.764Z,2.25
2022-09-20T08:14:09.618Z,2.97
2022-09-20T08:16:41.585Z,2.15
2022-09-20T08:19:21.187Z,1.02
2022-09-20T08:21:51.595Z,0.65
2022-09-20T08:24:19.920Z,1.02
2022-09-20T08:26:48.623Z,0.85
2022-09-20T08:29:16.318Z,3.17
2022-09-20T08:31:44.332Z,0.77
2022-09-20T08:34:15.179Z,1.25
2022-09-20T08:36:47.109Z,0.98
2022-09-20T08:42:33.921Z,0.30
2022-09-20T08:45:33.801Z,0.93
2022-09-20T08:48:14.205Z,1.45
2022-09-20T08:50:42.462Z,1.27
2022-09-20T08:53:14.911Z,3.60
2022-09-20T08:55:43.670Z,0.60
2022-09-20T08:58:14.276Z,1.45
2022-09-20T09:00:47.087Z,1.85
2022-09-20T09:03:17.990Z,0.20
2022-09-20T09:05:55.284Z,0.68
2022-09-20T09:08:37.611Z,0.32
2022-09-20T09:11:13.245Z,0.95
2022-09-20T09:14:04.760Z,1.23
2022-09-20T09:16:36.448Z,1.52
2022-09-20T09:19:33.942Z,1.83
2022-09-20T09:22:05.958Z,0.50
2022-09-20T09:24:34.059Z,1.25
2022-09-20T09:27:17.191Z,0.50
2022-09-20T09:29:56.395Z,0.73
2022-09-20T09:32:31.310Z,2.25
2022-09-20T09:35:31.722Z,1.13
2022-09-20T09:38:03.061Z,2.65
2022-09-20T09:40:33.162Z,2.15
2022-09-20T09:43:04.149Z,0.82
2022-09-20T09:45:40.147Z,0.52
2022-09-20T09:48:31.215Z,0.70
2022-09-20T09:51:28.310Z,0.40
2022-09-20T09:53:56.650Z,0.68
2022-09-20T09:56:51.279Z,0.45
2022-09-20T09:59:49.353Z,0.80
2022-09-20T10:02:49.414Z,0.80
2022-09-20T10:05:39.795Z,1.35
2022-09-20T10:08:16.592Z,1.42
2022-09-20T10:11:12.218Z,0.50
2022-09-20T10:13:59.268Z,1.10
2022-09-20T10:16:54.031Z,0.85
2022-09-20T10:20:02.291Z,1.58
2022-09-20T10:23:30.005Z,0.63
2022-09-20T10:26:17.555Z,0.43
2022-09-20T10:28:51.588Z,0.30
2022-09-20T10:32:03.942Z,2.10
2022-09-20T10:34:49.535Z,1.15
2022-09-20T10:37:54.997Z,1.17
2022-09-20T10:40:49.506Z,2.08
2022-09-20T10:43:51.918Z,2.78
2022-09-20T10:47:07.077Z,3.08
2022-09-20T10:50:08.502Z,3.15
2022-09-20T10:52:49.923Z,0.70
2022-09-20T10:56:14.920Z,1.75
2022-09-20T10:59:04.575Z,2.95
2022-09-20T11:01:47.883Z,1.60
2022-09-20T11:04:52.051Z,3.45
2022-09-20T11:07:52.659Z,4.50
2022-09-20T11:10:52.197Z,1.75
2022-09-20T11:13:54.141Z,4.95
2022-09-20T11:16:49.886Z,2.65
2022-09-20T11:19:42.173Z,3.22
2022-09-20T11:22:44.622Z,1.75
2022-09-20T11:25:38.542Z,2.28
2022-09-20T11:28:27.375Z,1.58
2022-09-20T11:31:55.551Z,4.57
2022-09-20T11:37:21.456Z,3.53
2022-09-20T11:45:51.269Z,1.30
2022-09-20T11:49:23.721Z,3.25
2022-09-20T11:53:23.648Z,3.17
2022-09-20T11:57:46.261Z,1.92
2022-09-20T12:09:31.363Z,3.30
2022-09-20T12:13:08.406Z,4.47
2022-09-20T12:15:40.334Z,12.63
2022-09-20T12:18:33.153Z,7.03
2022-09-20T12:21:30.907Z,6.65
2022-09-20T12:23:58.908Z,2.08
2022-09-20T12:26:36.992Z,6.38
2022-09-20T12:29:34.381Z,7.80
2022-09-20T12:32:42.071Z,2.30
2022-09-20T12:35:36.136Z,2.33
2022-09-20T12:38:22.179Z,0.93
2022-09-20T12:41:04.167Z,2.38
2022-09-20T12:43:36.249Z,1.10
2022-09-20T12:46:09.928Z,0.77
2022-09-20T12:48:39.970Z,1.45
2022-09-20T12:51:51.403Z,2.67
2022-09-20T12:54:19.451Z,0.77
2022-09-20T12:56:48.152Z,0.82
2022-09-20T12:59:31.218Z,0.82
2022-09-20T13:02:53.306Z,1.35
2022-09-20T13:06:17.606Z,3.15
2022-09-20T13:09:09.048Z,1.02
2022-09-20T13:11:52.643Z,1.67
2022-09-20T13:14:34.213Z,0.95
2022-09-20T13:17:13.705Z,1.35
2022-09-20T13:19:50.126Z,1.13
2022-09-20T13:22:33.092Z,1.85
2022-09-20T13:25:06.143Z,2.60
2022-09-20T13:27:45.381Z,2.33
2022-09-20T13:30:27.215Z,0.82
2022-09-20T13:32:55.405Z,2.25
2022-09-20T13:35:31.826Z,3.30
2022-09-20T13:38:09.830Z,1.00
2022-09-20T13:40:47.557Z,4.07
2022-09-20T13:43:33.592Z,3.65
2022-09-20T13:46:11.401Z,1.90
2022-09-20T13:48:40.368Z,4.68
2022-09-20T13:51:28.748Z,1.85
2022-09-20T13:54:29.487Z,4.30
2022-09-20T13:57:10.914Z,6.55
2022-09-20T13:59:46.709Z,3.83
2022-09-20T14:02:34.099Z,3.90
2022-09-20T14:05:07.473Z,2.55
2022-09-20T14:07:36.981Z,3.47
2022-09-20T14:10:25.344Z,2.42
2022-09-20T14:12:54.625Z,1.27
2022-09-20T14:15:23.281Z,2.90
2022-09-20T14:17:53.454Z,1.30
2022-09-20T14:20:23.170Z,2.28
2022-09-20T14:22:51.070Z,1.75
2022-09-20T14:25:25.743Z,2.58
2022-09-20T14:28:28.866Z,2.25
2022-09-20T14:31:19.434Z,1.75
2022-09-20T14:33:55.256Z,2.67
2022-09-20T14:36:27.948Z,2.25
2022-09-20T14:39:02.606Z,3.08
2022-09-20T14:41:43.095Z,1.65
2022-09-20T14:44:41.435Z,1.95
2022-09-20T14:47:16.564Z,1.98
2022-09-20T14:49:47.124Z,3.53
2022-09-20T14:52:27.464Z,1.85
2022-09-20T14:55:20.482Z,2.40
2022-09-20T14:57:48.921Z,3.90
2022-09-20T15:00:19.645Z,3.35
2022-09-20T15:02:47.806Z,3.45
2022-09-20T15:05:30.210Z,3.60
2022-09-20T15:07:59.744Z,3.03
2022-09-20T15:10:29.507Z,4.85
2022-09-20T15:12:57.622Z,3.03
2022-09-20T15:15:25.987Z,4.18
2022-09-20T15:17:54.866Z,4.80
2022-09-20T15:20:24.582Z,1.30
2022-09-20T15:22:52.863Z,2.80
2022-09-20T15:25:22.264Z,1.95
2022-09-20T15:27:51.806Z,1.13
2022-09-20T15:30:21.078Z,1.00
2022-09-20T15:32:49.232Z,1.73
2022-09-20T15:35:17.473Z,1.55
2022-09-20T15:37:46.091Z,2.47
2022-09-20T15:40:15.463Z,1.00
2022-09-20T15:42:43.368Z,1.77
2022-09-20T15:45:12.594Z,2.50
2022-09-20T15:47:42.478Z,1.50
2022-09-20T15:50:11.316Z,2.83
2022-09-20T15:52:41.824Z,1.92
2022-09-20T15:55:10.306Z,3.65
2022-09-20T15:57:39.713Z,2.80
2022-09-20T16:00:08.977Z,4.60
2022-09-20T16:02:37.254Z,3.03
2022-09-20T16:05:06.460Z,12.63
2022-09-20T16:07:34.676Z,32.00
2022-09-20T16:10:02.616Z,41.92
2022-09-20T16:12:30.958Z,35.92
2022-09-20T16:14:59.340Z,16.50
2022-09-20T16:17:46.918Z,37.72
2022-09-20T16:20:15.376Z,28.50
2022-09-20T16:22:43.281Z,12.00
2022-09-20T16:25:11.146Z,6.38
2022-09-20T16:27:39.219Z,4.22
2022-09-20T16:30:08.522Z,5.30
2022-09-20T16:32:36.817Z,5.72
2022-09-20T16:35:07.581Z,6.03
2022-09-20T16:37:37.484Z,7.00
2022-09-20T16:40:06.730Z,11.98
2022-09-20T16:42:35.097Z,5.67
2022-09-20T16:45:03.905Z,6.22
2022-09-20T16:47:32.331Z,5.55
2022-09-20T16:50:00.902Z,7.97
2022-09-20T16:52:29.104Z,10.30
2022-09-20T16:54:57.561Z,12.05
2022-09-20T16:57:26.128Z,14.20
2022-09-20T16:59:56.475Z,11.68
2022-09-20T17:02:25.482Z,10.45
2022-09-20T17:04:53.598Z,8.55
2022-09-20T17:07:24.961Z,8.32
2022-09-20T17:10:01.266Z,11.57
2022-09-20T17:12:33.614Z,8.85
2022-09-20T17:15:02.501Z,9.90
2022-09-20T17:17:31.239Z,9.35
2022-09-20T17:19:59.475Z,8.00
2022-09-20T17:22:28.679Z,11.57
2022-09-20T17:24:58.457Z,7.60
2022-09-20T17:27:26.837Z,7.55
2022-09-20T17:29:56.271Z,9.07
2022-09-20T17:32:25.328Z,13.00
2022-09-20T17:34:53.600Z,12.27
2022-09-20T17:37:22.107Z,7.07
2022-09-20T17:39:50.422Z,5.80
2022-09-20T17:42:18.384Z,6.15
2022-09-20T17:44:46.552Z,7.40
2022-09-20T17:47:14.449Z,7.93
2022-09-20T17:49:42.520Z,5.65
2022-09-20T17:52:11.418Z,10.85
2022-09-20T17:54:40.396Z,43.25
2022-09-20T17:57:09.088Z,13.70
2022-09-20T17:59:40.491Z,29.48
2022-09-20T18:02:11.114Z,22.20
2022-09-20T18:04:40.565Z,14.60
2022-09-20T18:07:09.730Z,14.05
2022-09-20T18:09:37.949Z,14.82
2022-09-20T18:12:06.780Z,22.60
2022-09-20T18:14:34.768Z,14.57
2022-09-20T18:17:02.744Z,38.55
2022-09-20T18:19:34.435Z,17.15
2022-09-20T18:22:04.373Z,15.15
2022-09-20T18:24:32.979Z,10.73
2022-09-20T18:27:01.539Z,10.90
2022-09-20T18:29:33.750Z,7.70
2022-09-20T18:32:02.857Z,11.48
2022-09-20T18:34:32.376Z,7.78
2022-09-20T18:37:02.082Z,5.75
2022-09-20T18:39:34.182Z,9.23
2022-09-20T18:42:05.266Z,8.00
2022-09-20T18:44:35.724Z,6.85
2022-09-20T18:47:06.041Z,10.70
2022-09-20T18:49:35.329Z,13.27
2022-09-20T18:52:04.211Z,12.82
2022-09-20T18:54:33.797Z,7.85
2022-09-20T18:57:03.328Z,9.20
2022-09-20T18:59:33.117Z,6.40
2022-09-20T19:02:52.309Z,10.30
2022-09-20T19:05:48.644Z,5.55
2022-09-20T19:08:43.885Z,5.00
2022-09-20T19:11:30.524Z,5.50
2022-09-20T19:14:19.846Z,4.90
2022-09-20T19:17:00.516Z,4.67
2022-09-20T19:20:14.727Z,5.68
2022-09-20T19:23:27.026Z,4.18
2022-09-20T19:26:20.521Z,5.50
2022-09-20T19:28:53.403Z,6.72
2022-09-20T19:31:34.268Z,8.05
2022-09-20T19:34:19.869Z,5.63
2022-09-20T19:37:13.269Z,6.35
2022-09-20T19:40:03.007Z,6.63
2022-09-20T19:43:37.843Z,6.22
2022-09-20T19:47:01.754Z,4.78
2022-09-20T19:50:10.823Z,9.43
2022-09-20T19:52:42.514Z,6.32
2022-09-20T19:55:19.219Z,5.78
2022-09-20T19:57:50.503Z,9.45
2022-09-20T20:00:21.977Z,9.68
2022-09-20T20:02:51.407Z,8.63
2022-09-20T20:05:25.842Z,7.75
2022-09-20T20:08:12.117Z,7.53
2022-09-20T20:11:20.822Z,7.63
2022-09-20T20:15:03.421Z,6.15
2022-09-20T20:18:17.269Z,8.40
2022-09-20T20:20:51.847Z,7.60
2022-09-20T20:23:56.270Z,5.47
2022-09-20T20:26:28.335Z,5.35
2022-09-20T20:29:00.445Z,7.43
2022-09-20T20:31:30.254Z,7.28
2022-09-20T20:36:27.849Z,7.45
2022-09-20T20:38:57.030Z,8.40
2022-09-20T20:41:26.047Z,6.13
2022-09-20T20:43:58.320Z,7.77
2022-09-20T20:46:27.391Z,7.78
2022-09-20T20:48:56.263Z,9.35
2022-09-20T20:51:27.757Z,5.05
2022-09-20T20:53:58.480Z,6.82
2022-09-20T20:56:32.227Z,6.82
2022-09-20T20:59:06.565Z,8.55
2022-09-20T21:01:43.015Z,6.20
2022-09-20T21:04:13.024Z,7.43
2022-09-20T21:06:42.536Z,6.03
2022-09-20T21:09:12.244Z,7.93
2022-09-20T21:11:46.816Z,7.80
2022-09-20T21:14:16.075Z,4.82
2022-09-20T21:16:45.253Z,5.55
2022-09-20T21:19:15.762Z,6.85
2022-09-20T21:21:46.493Z,5.00
2022-09-20T21:24:17.509Z,6.32
2022-09-20T21:26:46.681Z,7.55
2022-09-20T21:29:16.258Z,4.07
2022-09-20T21:31:47.047Z,6.45
2022-09-20T21:34:16.740Z,5.68
2022-09-20T21:36:45.455Z,4.43
2022-09-20T21:39:13.908Z,6.13
2022-09-20T21:41:42.374Z,3.92
2022-09-20T21:44:10.880Z,10.20
2022-09-20T21:46:41.914Z,6.40
2022-09-20T21:49:12.744Z,7.32
2022-09-20T21:51:43.328Z,5.50
2022-09-20T21:54:11.673Z,6.65
2022-09-20T21:56:41.463Z,4.60
2022-09-20T22:01:40.335Z,6.65
2022-09-20T22:04:12.753Z,4.78
2022-09-20T22:06:45.336Z,7.18
2022-09-20T22:09:16.616Z,6.55
2022-09-20T22:11:49.038Z,3.30
2022-09-20T22:14:19.921Z,4.07
2022-09-20T22:16:51.541Z,5.55
2022-09-20T22:19:20.522Z,4.93
2022-09-20T22:21:51.548Z,3.03
2022-09-20T22:24:19.518Z,6.00
2022-09-20T22:26:50.817Z,4.25
2022-09-20T22:29:19.432Z,3.65
2022-09-20T22:31:50.295Z,5.40
2022-09-20T22:34:22.185Z,6.20
2022-09-20T22:36:50.436Z,2.90
2022-09-20T22:39:18.472Z,2.15
2022-09-20T22:41:48.114Z,3.33
2022-09-20T22:44:16.396Z,4.00
2022-09-20T22:46:44.089Z,4.85
2022-09-20T22:49:11.719Z,2.38
2022-09-20T22:51:39.638Z,3.13
2022-09-20T22:54:11.294Z,2.72
2022-09-20T22:56:41.403Z,2.55
2022-09-20T22:59:13.032Z,2.55
2022-09-20T23:01:46.419Z,2.75
2022-09-20T23:04:20.202Z,6.00
2022-09-20T23:06:55.029Z,3.40
2022-09-20T23:09:26.432Z,3.50
2022-09-20T23:11:54.159Z,3.63
2022-09-20T23:14:23.471Z,4.53
2022-09-20T23:16:51.624Z,7.05
2022-09-20T23:19:19.296Z,5.20
2022-09-20T23:21:46.786Z,5.57
2022-09-20T23:24:16.699Z,4.05
2022-09-20T23:26:45.419Z,5.65
2022-09-20T23:29:17.451Z,4.38
2022-09-20T23:31:47.871Z,7.55
2022-09-20T23:34:17.479Z,7.20
2022-09-20T23:36:45.884Z,7.63
2022-09-20T23:39:14.415Z,5.90
2022-09-20T23:41:45.798Z,3.67
2022-09-20T23:44:16.279Z,5.45
2022-09-20T23:46:43.852Z,6.35
2022-09-20T23:49:11.372Z,6.10
2022-09-20T23:51:39.098Z,3.53
2022-09-20T23:54:06.706Z,7.68
2022-09-20T23:56:34.375Z,4.28
2022-09-20T23:59:02.097Z,3.10
